Time;durP1;ratioP1;P1;durP2;ratioP2;P2;SDS_P1;SDS_P2;PMS_P1;PMS_P2;Temp;Humidity;BMP_temperature;BMP_pressure;BME280_temperature;BME280_humidity;BME280_pressure;Samples;Min_cycle;Max_cycle;Signal;HPM_P1;HPM_P2
2023/12/13 00:02:09;;;;;;;1.08;0.63;;;;;;;9.20;100.00;99246.47;5265663;28;20411;-49
2023/12/13 00:04:42;;;;;;;0.50;0.50;;;;;;;9.18;100.00;99255.94;5273511;28;20055;-49
2023/12/13 00:07:15;;;;;;;1.67;1.00;;;;;;;9.15;100.00;99250.72;5270243;28;20124;-49
2023/12/13 00:09:47;;;;;;;0.80;0.55;;;;;;;9.12;100.00;99240.25;5270338;28;20051;-49
2023/12/13 00:12:20;;;;;;;1.67;0.80;;;;;;;9.12;100.00;99237.66;5275368;28;20047;-49
2023/12/13 00:14:53;;;;;;;0.50;0.50;;;;;;;9.10;100.00;99242.81;5276587;28;20044;-48
2023/12/13 00:17:27;;;;;;;0.50;0.50;;;;;;;9.09;100.00;99248.00;5273770;28;20165;-49
2023/12/13 00:19:59;;;;;;;1.23;0.50;;;;;;;9.06;100.00;99235.81;5286337;28;20509;-49
2023/12/13 00:22:32;;;;;;;0.73;0.52;;;;;;;9.06;100.00;99232.34;5273221;28;20506;-49
2023/12/13 00:25:06;;;;;;;1.13;0.60;;;;;;;9.07;100.00;99236.72;5273319;28;20040;-49
2023/12/13 00:27:39;;;;;;;0.55;0.50;;;;;;;9.06;100.00;99235.81;5276850;28;20048;-48
2023/12/13 00:30:12;;;;;;;0.65;0.50;;;;;;;9.07;100.00;99222.00;5268776;28;20071;-48
2023/12/13 00:32:46;;;;;;;1.05;0.55;;;;;;;9.07;100.00;99228.91;5273531;28;20056;-49
2023/12/13 00:35:19;;;;;;;0.50;0.50;;;;;;;9.05;100.00;99222.81;5264218;28;20094;-49
2023/12/13 00:37:51;;;;;;;1.73;0.43;;;;;;;9.03;100.00;99230.59;5275891;28;20109;-49
2023/12/13 00:40:24;;;;;;;1.75;0.55;;;;;;;9.00;100.00;99232.25;5264836;28;20517;-48
2023/12/13 00:42:57;;;;;;;0.60;0.43;;;;;;;9.00;100.00;99234.84;5276360;28;20040;-48
2023/12/13 00:45:30;;;;;;;1.15;0.60;;;;;;;9.00;100.00;99229.66;5256511;28;20097;-49
2023/12/13 00:48:04;;;;;;;0.85;0.55;;;;;;;9.00;100.00;99230.56;5259690;28;20052;-49
2023/12/13 00:50:37;;;;;;;1.48;0.73;;;;;;;9.00;100.00;99229.66;5259806;28;20044;-49
2023/12/13 00:53:10;;;;;;;1.00;0.90;;;;;;;9.01;100.00;99226.22;5261070;28;20044;-50
2023/12/13 00:55:43;;;;;;;0.70;0.70;;;;;;;9.01;100.00;99227.09;5260978;28;20136;-49
2023/12/13 00:58:15;;;;;;;1.27;0.75;;;;;;;9.02;100.00;99223.63;5264019;28;20126;-49
2023/12/13 01:00:48;;;;;;;0.88;0.82;;;;;;;9.03;100.00;99220.19;5260626;28;20067;-49
2023/12/13 01:03:22;;;;;;;1.67;0.52;;;;;;;9.04;100.00;99232.31;5262514;28;20048;-48
2023/12/13 01:05:55;;;;;;;0.93;0.50;;;;;;;9.04;100.00;99226.25;5254624;28;20040;-49
2023/12/13 01:08:27;;;;;;;2.17;0.95;;;;;;;9.05;100.00;99228.00;5263715;28;20138;-49
2023/12/13 01:11:00;;;;;;;1.25;0.80;;;;;;;9.05;100.00;99228.00;5267016;28;20048;-48
2023/12/13 01:13:33;;;;;;;1.38;0.70;;;;;;;9.06;100.00;99228.03;5262345;28;20055;-49
2023/12/13 01:16:06;;;;;;;1.10;0.60;;;;;;;9.09;100.00;99229.81;5279943;28;20083;-50
2023/12/13 01:18:40;;;;;;;0.63;0.63;;;;;;;9.11;100.00;99228.97;5262493;28;20059;-50
2023/12/13 01:21:12;;;;;;;0.63;0.60;;;;;;;9.14;100.00;99228.16;5276758;28;20055;-48
2023/12/13 01:23:45;;;;;;;0.80;0.60;;;;;;;9.15;100.00;99229.91;5260648;28;20055;-49
2023/12/13 01:26:18;;;;;;;1.08;0.60;;;;;;;9.16;100.00;99227.31;5254586;28;20074;-49
2023/12/13 01:28:50;;;;;;;1.95;0.60;;;;;;;9.17;100.00;99230.78;5259054;28;20047;-48
2023/12/13 01:31:23;;;;;;;0.70;0.40;;;;;;;9.18;100.00;99235.13;5263974;28;20403;-48
2023/12/13 01:33:57;;;;;;;1.48;0.80;;;;;;;9.20;100.00;99230.88;5260018;28;20045;-49
2023/12/13 01:36:30;;;;;;;0.38;0.38;;;;;;;9.19;100.00;99226.47;5259516;28;20055;-48
2023/12/13 01:39:02;;;;;;;0.55;0.40;;;;;;;9.20;100.00;99234.34;5273483;28;20056;-50
2023/12/13 01:41:35;;;;;;;0.57;0.38;;;;;;;9.20;100.00;99243.84;5262506;28;20515;-49
2023/12/13 01:44:08;;;;;;;0.43;0.30;;;;;;;9.23;100.00;99243.88;5260097;28;20052;-49
2023/12/13 01:46:41;;;;;;;0.28;0.25;;;;;;;9.22;100.00;99236.94;5260340;28;20071;-50
2023/12/13 01:49:15;;;;;;;0.52;0.52;;;;;;;9.24;100.00;99237.84;5260736;28;20059;-49
2023/12/13 01:51:48;;;;;;;0.73;0.50;;;;;;;9.25;100.00;99231.78;5252338;28;20035;-49
2023/12/13 01:54:21;;;;;;;0.95;0.52;;;;;;;9.27;100.00;99235.31;5262486;28;20051;-48
2023/12/13 01:56:53;;;;;;;0.80;0.50;;;;;;;9.28;100.00;99236.16;5256888;28;20036;-49
2023/12/13 01:59:28;;;;;;;1.60;0.70;;;;;;;9.25;100.00;99235.25;5261793;28;20051;-48
2023/12/13 02:02:00;;;;;;;1.42;0.52;;;;;;;9.25;100.00;99231.78;5264416;28;20048;-50
2023/12/13 02:04:36;;;;;;;1.52;0.52;;;;;;;9.27;100.00;99234.44;5261944;28;20067;-48
2023/12/13 02:07:08;;;;;;;1.85;0.55;;;;;;;9.25;100.00;99224.84;5261377;28;20070;-49
2023/12/13 02:09:41;;;;;;;0.90;0.60;;;;;;;9.26;100.00;99223.16;5259830;28;20052;-49
2023/12/13 02:12:14;;;;;;;0.90;0.60;;;;;;;9.26;100.00;99215.34;5276018;28;20497;-49
2023/12/13 02:14:47;;;;;;;1.25;0.63;;;;;;;9.27;100.00;99214.50;5258471;28;20052;-49
2023/12/13 02:17:19;;;;;;;1.23;0.52;;;;;;;9.27;100.00;99219.69;5257567;28;20530;-49
2023/12/13 02:19:53;;;;;;;1.42;0.60;;;;;;;9.29;100.00;99217.13;5257514;28;20052;-48
2023/12/13 02:22:27;;;;;;;1.08;0.55;;;;;;;9.29;100.00;99212.78;5261073;28;20048;-48
2023/12/13 02:25:00;;;;;;;0.70;0.57;;;;;;;9.29;100.00;99209.31;5258724;28;20055;-48
2023/12/13 02:27:33;;;;;;;0.60;0.57;;;;;;;9.29;100.00;99202.38;5266885;28;20052;-49
2023/12/13 02:30:09;;;;;;;0.88;0.68;;;;;;;9.30;100.00;99206.72;5250485;28;20223;-50
2023/12/13 02:32:41;;;;;;;0.63;0.52;;;;;;;9.31;100.00;99208.47;5259524;28;20070;-49
2023/12/13 02:35:14;;;;;;;0.85;0.55;;;;;;;9.31;100.00;99199.81;5257092;28;20041;-48
2023/12/13 02:37:49;;;;;;;1.48;0.68;;;;;;;9.31;100.00;99195.47;5259138;28;20047;-48
2023/12/13 02:40:23;;;;;;;0.80;0.47;;;;;;;9.33;100.00;99196.41;5271497;28;20044;-49
2023/12/13 02:42:56;;;;;;;0.43;0.43;;;;;;;9.34;100.00;99199.88;5252428;28;20145;-48
2023/12/13 02:45:28;;;;;;;1.00;0.60;;;;;;;9.35;100.00;99194.69;5256424;28;20044;-49
2023/12/13 02:48:01;;;;;;;0.65;0.60;;;;;;;9.35;100.00;99189.47;5252001;28;20051;-49
2023/12/13 02:50:36;;;;;;;0.90;0.63;;;;;;;9.36;100.00;99193.81;5256863;28;20063;-49
2023/12/13 02:53:10;;;;;;;0.60;0.60;;;;;;;9.38;100.00;99193.84;5268191;28;20052;-49
2023/12/13 02:55:43;;;;;;;0.65;0.55;;;;;;;9.38;100.00;99192.09;5257602;28;20097;-49
2023/12/13 02:58:15;;;;;;;0.50;0.50;;;;;;;9.39;100.00;99186.09;5257799;28;20048;-48
2023/12/13 03:00:50;;;;;;;2.00;0.55;;;;;;;9.37;100.00;99185.16;5257131;28;20547;-48
2023/12/13 03:03:23;;;;;;;1.50;0.60;;;;;;;9.37;100.00;99177.34;5264246;28;20056;-49
2023/12/13 03:05:55;;;;;;;1.23;0.60;;;;;;;9.38;100.00;99175.63;5259045;28;20060;-49
2023/12/13 03:08:30;;;;;;;2.67;0.80;;;;;;;9.38;100.00;99173.91;5260789;28;20051;-48
2023/12/13 03:11:02;;;;;;;0.63;0.40;;;;;;;9.38;100.00;99180.84;5259628;28;20124;-49
2023/12/13 03:13:36;;;;;;;0.50;0.50;;;;;;;9.38;100.00;99181.69;5257493;28;20400;-48
2023/12/13 03:16:09;;;;;;;1.10;0.60;;;;;;;9.38;100.00;99181.69;5262185;28;20040;-49
2023/12/13 03:18:41;;;;;;;1.50;0.77;;;;;;;9.39;100.00;99174.78;5261292;28;20059;-49
2023/12/13 03:21:14;;;;;;;1.10;0.47;;;;;;;9.39;100.00;99173.06;5277996;28;20047;-49
2023/12/13 03:23:48;;;;;;;1.15;0.52;;;;;;;9.39;100.00;99172.16;5252209;28;20053;-48
2023/12/13 03:26:20;;;;;;;0.57;0.52;;;;;;;9.37;100.00;99173.88;5261575;28;20055;-48
2023/12/13 03:28:53;;;;;;;1.15;0.40;;;;;;;9.36;100.00;99169.53;5260550;28;20059;-50
2023/12/13 03:31:26;;;;;;;0.45;0.45;;;;;;;9.35;100.00;99176.47;5261650;28;20048;-49
2023/12/13 03:34:00;;;;;;;0.60;0.60;;;;;;;9.32;100.00;99166.00;5260075;28;20048;-50
2023/12/13 03:36:33;;;;;;;2.45;0.95;;;;;;;9.32;100.00;99165.13;5261571;28;20545;-49
2023/12/13 03:39:07;;;;;;;0.63;0.55;;;;;;;9.29;100.00;99160.78;5254312;28;20048;-49
2023/12/13 03:41:40;;;;;;;0.70;0.70;;;;;;;9.27;100.00;99162.50;5260590;28;20105;-49
2023/12/13 03:44:12;;;;;;;1.52;0.95;;;;;;;9.25;100.00;99159.84;5276981;28;20051;-49
2023/12/13 03:46:45;;;;;;;2.22;0.70;;;;;;;9.24;100.00;99158.13;5260554;28;20807;-49
2023/12/13 03:49:18;;;;;;;0.63;0.63;;;;;;;9.25;100.00;99148.59;5260757;28;20044;-49
2023/12/13 03:51:50;;;;;;;1.05;0.63;;;;;;;9.24;100.00;99149.44;5260166;28;20048;-49
2023/12/13 03:54:24;;;;;;;1.00;0.80;;;;;;;9.24;100.00;99142.50;5261467;28;20055;-48
2023/12/13 03:56:57;;;;;;;1.80;0.82;;;;;;;9.22;100.00;99140.75;5257764;28;20051;-48
2023/12/13 03:59:29;;;;;;;2.22;0.90;;;;;;;9.21;100.00;99144.22;5254495;28;20059;-49
2023/12/13 04:02:02;;;;;;;1.50;0.73;;;;;;;9.19;100.00;99133.81;5257539;28;20048;-49
2023/12/13 04:04:35;;;;;;;2.35;0.73;;;;;;;9.16;100.00;99138.94;5256125;28;20048;-48
2023/12/13 04:07:08;;;;;;;2.28;0.70;;;;;;;9.16;100.00;99133.75;5274104;28;20055;-49
2023/12/13 04:09:42;;;;;;;4.18;0.57;;;;;;;9.15;100.00;99138.94;5259783;28;20044;-48
2023/12/13 04:12:15;;;;;;;1.23;0.70;;;;;;;9.13;100.00;99143.25;5259968;28;20068;-48
2023/12/13 04:14:48;;;;;;;0.98;0.82;;;;;;;9.10;100.00;99132.78;5258962;28;20047;-49
2023/12/13 04:17:21;;;;;;;2.50;0.60;;;;;;;9.11;100.00;99143.19;5263059;28;20044;-49
2023/12/13 04:19:57;;;;;;;1.48;1.08;;;;;;;9.10;100.00;99133.66;5263756;28;20048;-50
2023/12/13 04:22:29;;;;;;;2.20;0.80;;;;;;;9.10;100.00;99132.78;5280507;28;20040;-49
2023/12/13 04:25:03;;;;;;;2.72;0.80;;;;;;;9.09;100.00;99144.91;5258829;28;20060;-48
2023/12/13 04:27:36;;;;;;;1.33;0.50;;;;;;;9.10;100.00;99144.06;5258588;28;20414;-51
2023/12/13 04:30:11;;;;;;;0.90;0.52;;;;;;;9.07;100.00;99137.94;5269155;28;20106;-48
2023/12/13 04:32:43;;;;;;;2.38;0.85;;;;;;;9.04;100.00;99133.56;5258141;28;20556;-49
2023/12/13 04:35:16;;;;;;;1.83;0.55;;;;;;;9.01;100.00;99138.72;5275117;28;20044;-49
2023/12/13 04:37:49;;;;;;;1.10;0.80;;;;;;;8.98;100.00;99129.16;5259358;28;20514;-48
2023/12/13 04:40:23;;;;;;;1.13;0.70;;;;;;;8.94;100.00;99136.91;5267178;28;20044;-49
2023/12/13 04:42:56;;;;;;;1.58;0.60;;;;;;;8.90;100.00;99135.97;5259038;28;20093;-48
2023/12/13 04:45:28;;;;;;;1.75;0.52;;;;;;;8.86;100.00;99134.16;5264088;28;20130;-49
2023/12/13 04:48:01;;;;;;;0.57;0.57;;;;;;;8.79;100.00;99134.91;5272551;28;20048;-49
2023/12/13 04:50:34;;;;;;;0.82;0.57;;;;;;;8.75;100.00;99137.47;5259848;28;20051;-49
2023/12/13 04:53:06;;;;;;;1.63;0.60;;;;;;;8.72;100.00;99146.06;5271466;28;20335;-48
2023/12/13 04:55:40;;;;;;;0.55;0.55;;;;;;;8.66;100.00;99143.38;5263491;28;20044;-48
2023/12/13 04:58:13;;;;;;;2.00;0.70;;;;;;;8.60;100.00;99140.66;5255080;28;20048;-49
2023/12/13 05:00:46;;;;;;;1.02;0.65;;;;;;;8.54;100.00;99141.47;5262752;28;20573;-49
2023/12/13 05:03:18;;;;;;;1.35;0.65;;;;;;;8.50;100.00;99141.38;5253149;28;20048;-48
2023/12/13 05:05:51;;;;;;;0.80;0.60;;;;;;;8.47;100.00;99136.13;5259904;28;20541;-47
2023/12/13 05:08:23;;;;;;;1.40;1.08;;;;;;;8.45;100.00;99136.09;5275463;28;20051;-49
2023/12/13 05:10:59;;;;;;;1.08;0.93;;;;;;;8.43;100.00;99133.50;5260826;28;20040;-49
2023/12/13 05:13:31;;;;;;;;;;;;;;;8.41;100.00;99124.81;5263606;28;20139;-49
2023/12/13 05:16:04;;;;;;;3.53;1.08;;;;;;;8.39;100.00;99131.69;5260052;28;19920;-48
2023/12/13 05:18:37;;;;;;;1.55;0.93;;;;;;;8.39;100.00;99133.41;5264107;28;20077;-49
2023/12/13 05:21:09;;;;;;;1.33;0.93;;;;;;;8.35;100.00;99127.31;5263055;28;20058;-49
2023/12/13 05:23:42;;;;;;;1.45;0.95;;;;;;;8.32;100.00;99124.59;5262520;28;20063;-48
2023/12/13 05:26:16;;;;;;;1.63;0.80;;;;;;;8.34;100.00;99122.91;5262843;28;20048;-48
2023/12/13 05:28:49;;;;;;;1.90;1.52;;;;;;;8.34;100.00;99127.22;5262174;28;20051;-48
2023/12/13 05:31:22;;;;;;;2.35;1.20;;;;;;;8.33;100.00;99125.47;5268009;28;20406;-48
2023/12/13 05:33:55;;;;;;;1.77;1.58;;;;;;;8.31;100.00;99125.47;5258869;28;20582;-48
2023/12/13 05:36:28;;;;;;;1.63;1.20;;;;;;;8.29;100.00;99129.75;5257477;28;20514;-49
2023/12/13 05:39:01;;;;;;;1.80;1.15;;;;;;;8.27;100.00;99128.84;5262734;28;20044;-49
2023/12/13 05:41:35;;;;;;;1.48;1.20;;;;;;;8.25;100.00;99130.53;5263344;28;20047;-49
2023/12/13 05:44:07;;;;;;;2.13;1.60;;;;;;;8.22;100.00;99127.91;5258851;28;20048;-49
2023/12/13 05:46:40;;;;;;;3.40;1.33;;;;;;;8.22;100.00;99132.22;5258123;28;20043;-48
2023/12/13 05:49:12;;;;;;;1.88;1.00;;;;;;;8.21;100.00;99126.13;5270464;28;20048;-49
2023/12/13 05:51:45;;;;;;;2.85;1.13;;;;;;;8.21;100.00;99123.53;5262153;28;20043;-49
2023/12/13 05:54:19;;;;;;;2.80;1.15;;;;;;;8.19;100.00;99132.16;5259626;28;20048;-48
2023/12/13 05:56:53;;;;;;;2.25;1.02;;;;;;;8.17;100.00;99132.13;5259340;28;20510;-48
2023/12/13 05:59:26;;;;;;;3.25;1.05;;;;;;;8.16;100.00;99135.56;5256958;28;20123;-48
2023/12/13 06:01:59;;;;;;;2.40;1.13;;;;;;;8.15;100.00;99116.53;5261552;28;20041;-49
2023/12/13 06:04:31;;;;;;;4.18;1.20;;;;;;;8.12;100.00;99111.28;5262091;28;20059;-49
2023/12/13 06:07:04;;;;;;;1.40;1.30;;;;;;;8.12;100.00;99120.78;5253966;28;20043;-49
2023/12/13 06:09:37;;;;;;;1.80;1.17;;;;;;;8.12;100.00;99120.78;5252102;28;20407;-50
2023/12/13 06:12:11;;;;;;;4.72;1.55;;;;;;;8.12;100.00;99128.56;5259926;28;20048;-48
2023/12/13 06:14:44;;;;;;;1.98;1.10;;;;;;;8.16;100.00;99127.78;5259386;28;20565;-48
2023/12/13 06:17:17;;;;;;;1.98;1.10;;;;;;;8.18;100.00;99128.69;5257321;28;20044;-46
2023/12/13 06:19:49;;;;;;;2.55;1.20;;;;;;;8.21;100.00;99133.91;5256666;28;20044;-46
2023/12/13 06:22:22;;;;;;;2.25;1.00;;;;;;;8.22;100.00;99127.91;5258223;28;20041;-47
2023/12/13 06:24:55;;;;;;;3.65;1.25;;;;;;;8.24;100.00;99136.59;5254468;28;20055;-48
2023/12/13 06:27:29;;;;;;;1.65;0.93;;;;;;;8.28;100.00;99130.59;5258897;28;20048;-47
2023/12/13 06:30:01;;;;;;;2.97;1.13;;;;;;;8.32;100.00;99127.19;5261347;28;20411;-47
2023/12/13 06:32:34;;;;;;;2.13;0.95;;;;;;;8.34;100.00;99128.09;5262999;28;20044;-47
2023/12/13 06:35:07;;;;;;;1.67;1.25;;;;;;;8.36;100.00;99126.44;5276654;28;20044;-48
2023/12/13 06:37:40;;;;;;;2.60;1.02;;;;;;;8.37;100.00;99123.00;5252311;28;20040;-47
2023/12/13 06:40:14;;;;;;;4.30;1.10;;;;;;;8.39;100.00;99125.63;5246566;28;20118;-48
2023/12/13 06:42:48;;;;;;;2.83;1.42;;;;;;;8.39;100.00;99123.00;5268757;28;20160;-49
2023/12/13 06:45:21;;;;;;;3.67;1.40;;;;;;;8.39;100.00;99123.88;5258828;28;20503;-49
2023/12/13 06:47:54;;;;;;;6.03;1.55;;;;;;;8.40;100.00;99130.81;5255535;28;20127;-47
2023/12/13 06:50:27;;;;;;;4.55;1.40;;;;;;;8.42;100.00;99134.34;5264447;28;20051;-48
2023/12/13 06:53:00;;;;;;;5.78;1.63;;;;;;;8.46;100.00;99132.66;5254516;28;20048;-49
2023/12/13 06:55:33;;;;;;;4.07;1.23;;;;;;;8.45;100.00;99133.50;5252866;28;20051;-47
2023/12/13 06:58:07;;;;;;;3.85;1.33;;;;;;;8.47;100.00;99134.41;5247353;28;20052;-46
2023/12/13 07:00:40;;;;;;;2.78;1.30;;;;;;;8.47;100.00;99130.94;5269773;28;20056;-47
2023/12/13 07:03:13;;;;;;;4.15;1.55;;;;;;;8.48;100.00;99130.09;5251990;28;20044;-47
2023/12/13 07:05:45;;;;;;;3.00;1.20;;;;;;;8.48;100.00;99124.91;5253212;28;20060;-48
2023/12/13 07:08:18;;;;;;;3.50;1.15;;;;;;;8.49;100.00;99129.25;5259254;28;20059;-48
2023/12/13 07:10:51;;;;;;;3.45;1.60;;;;;;;8.51;100.00;99124.94;5254488;28;20059;-48
2023/12/13 07:13:25;;;;;;;2.15;1.10;;;;;;;8.52;100.00;99122.38;5260036;28;20051;-49
2023/12/13 07:15:57;;;;;;;4.20;1.00;;;;;;;8.53;100.00;99128.44;5255203;28;20044;-48
2023/12/13 07:18:30;;;;;;;3.25;1.40;;;;;;;8.52;100.00;99131.88;5251030;28;20048;-48
2023/12/13 07:21:03;;;;;;;3.58;1.67;;;;;;;8.52;100.00;99137.06;5253888;28;20048;-48
2023/12/13 07:23:36;;;;;;;4.20;1.63;;;;;;;8.53;100.00;99133.63;5255615;28;20041;-48
2023/12/13 07:26:09;;;;;;;2.58;1.33;;;;;;;8.55;100.00;99134.56;5253884;28;20082;-49
2023/12/13 07:28:43;;;;;;;3.40;1.52;;;;;;;8.61;100.00;99142.44;5257029;28;20134;-48
2023/12/13 07:31:16;;;;;;;5.28;1.52;;;;;;;8.69;100.00;99151.22;5250623;28;20428;-47
2023/12/13 07:33:48;;;;;;;3.38;2.00;;;;;;;8.70;100.00;99145.19;5257323;28;20040;-49
2023/12/13 07:36:22;;;;;;;3.85;1.40;;;;;;;8.70;100.00;99147.78;5248656;28;20040;-48
2023/12/13 07:38:55;;;;;;;3.55;1.52;;;;;;;8.68;100.00;99145.16;5260793;28;20131;-47
2023/12/13 07:41:27;;;;;;;5.68;1.83;;;;;;;8.66;100.00;99145.97;5261592;28;20066;-48
2023/12/13 07:44:02;;;;;;;3.67;1.55;;;;;;;8.63;100.00;99140.72;5257024;28;20413;-47
2023/12/13 07:46:34;;;;;;;2.80;1.45;;;;;;;8.61;100.00;99142.44;5263592;28;20126;-48
2023/12/13 07:49:08;;;;;;;3.22;1.58;;;;;;;8.59;100.00;99150.19;5266738;28;20051;-46
2023/12/13 07:51:40;;;;;;;4.25;1.60;;;;;;;8.58;100.00;99147.56;5270777;28;20059;-48
2023/12/13 07:54:16;;;;;;;4.90;1.77;;;;;;;8.59;100.00;99150.19;5261768;28;20047;-48
2023/12/13 07:56:49;;;;;;;5.07;1.70;;;;;;;8.60;100.00;99145.88;5260669;28;20047;-47
2023/12/13 07:59:23;;;;;;;3.95;1.63;;;;;;;8.60;100.00;99146.72;5258701;28;20039;-49
2023/12/13 08:01:56;;;;;;;3.88;1.65;;;;;;;8.62;100.00;99149.38;5265951;28;20059;-48
2023/12/13 08:04:29;;;;;;;3.38;1.52;;;;;;;8.64;100.00;99151.16;5260929;28;20045;-48
2023/12/13 08:07:01;;;;;;;4.63;1.67;;;;;;;8.67;100.00;99148.63;5257629;28;20127;-48
2023/12/13 08:09:34;;;;;;;3.20;1.52;;;;;;;8.69;100.00;99146.91;5268546;28;20503;-50
2023/12/13 08:12:07;;;;;;;5.10;1.95;;;;;;;8.76;100.00;99149.59;5259821;28;20114;-50
2023/12/13 08:14:41;;;;;;;3.42;1.65;;;;;;;8.77;100.00;99157.41;5275710;28;20046;-49
2023/12/13 08:17:14;;;;;;;3.45;1.45;;;;;;;8.78;100.00;99156.56;5278116;28;20040;-49
2023/12/13 08:19:46;;;;;;;2.80;1.33;;;;;;;8.79;100.00;99155.69;5259888;28;20106;-48
2023/12/13 08:22:19;;;;;;;3.72;1.25;;;;;;;8.79;100.00;99153.09;5255134;28;20051;-48
2023/12/13 08:24:51;;;;;;;6.18;2.00;;;;;;;8.79;100.00;99152.22;5267846;28;20050;-49
2023/12/13 08:29:27;;;;;;;6.07;2.17;;;8.90;99.90;;;9.25;100.00;99148.59;5314045;27;20590;-49
2023/12/13 08:32:00;;;;;;;3.20;1.63;;;9.20;99.90;;;9.24;100.00;99146.84;5279076;28;20062;-49
2023/12/13 08:34:32;;;;;;;5.25;2.10;;;9.30;99.90;;;9.16;100.00;99158.88;5259747;28;20077;-49
2023/12/13 08:37:05;;;;;;;4.20;1.73;;;9.30;99.90;;;9.09;100.00;99146.63;5265704;28;20052;-49
2023/12/13 08:39:38;;;;;;;5.75;2.25;;;9.20;99.90;;;9.03;100.00;99146.53;5261105;28;20403;-49
2023/12/13 08:42:10;;;;;;;4.25;1.55;;;9.10;99.90;;;9.00;100.00;99152.59;5260505;28;20059;-49
2023/12/13 08:44:44;;;;;;;4.60;1.63;;;9.10;99.90;;;8.97;100.00;99153.41;5283608;28;20118;-49
2023/12/13 08:47:17;;;;;;;5.95;2.03;;;9.10;99.90;;;8.91;100.00;99153.28;5179791;28;20132;-49
2023/12/13 08:49:49;;;;;;;8.63;2.95;;;9.00;99.90;;;8.89;100.00;99160.22;5216116;28;20061;-49
2023/12/13 08:52:22;;;;;;;4.70;1.50;;;9.00;99.90;;;8.88;100.00;99163.66;5215786;28;20371;-51
2023/12/13 08:54:55;;;;;;;4.93;1.67;;;9.00;99.90;;;8.88;100.00;99162.78;5225288;28;20132;-48
2023/12/13 08:57:27;;;;;;;8.13;2.70;;;9.00;99.90;;;8.87;100.00;99169.72;5228828;28;20424;-49
2023/12/13 09:00:01;;;;;;;4.53;1.77;;;9.00;99.90;;;8.88;100.00;99165.38;5220536;28;20051;-48
2023/12/13 09:02:33;;;;;;;4.38;1.80;;;9.00;99.90;;;8.90;100.00;99167.16;5216083;28;20086;-49
2023/12/13 09:05:07;;;;;;;3.38;1.67;;;9.00;99.90;;;8.91;100.00;99166.28;5220568;28;20158;-49
2023/12/13 09:07:40;;;;;;;4.32;1.90;;;9.00;99.90;;;8.91;100.00;99170.63;5214517;28;20049;-50
2023/12/13 09:10:13;;;;;;;3.22;1.33;;;9.00;99.90;;;8.92;100.00;99167.16;5229728;28;20102;-49
2023/12/13 09:12:45;;;;;;;4.32;1.55;;;9.00;99.90;;;8.93;100.00;99172.41;5220733;28;20053;-49
2023/12/13 09:15:19;;;;;;;3.65;1.95;;;9.00;99.90;;;8.96;100.00;99176.75;5205209;28;20103;-48
2023/12/13 09:17:52;;;;;;;3.63;1.83;;;9.00;99.90;;;8.96;100.00;99176.75;5221112;28;20056;-50
2023/12/13 09:20:24;;;;;;;2.92;1.42;;;9.00;99.90;;;9.00;100.00;99177.66;5221467;28;20072;-49
2023/12/13 09:22:57;;;;;;;2.75;1.52;;;9.00;99.90;;;9.00;100.00;99178.56;5209466;28;20041;-49
2023/12/13 09:25:29;;;;;;;3.55;1.60;;;9.10;99.90;;;9.04;100.00;99176.88;5222885;28;20040;-49
2023/12/13 09:28:02;;;;;;;3.28;1.63;;;9.10;99.90;;;9.08;100.00;99182.16;5158782;28;20428;-47
2023/12/13 09:30:37;;;;;;;4.43;1.92;;;9.10;99.90;;;9.13;100.00;99177.03;5225179;28;20051;-49
2023/12/13 09:33:11;;;;;;;3.60;1.52;;;9.20;99.90;;;9.24;100.00;99183.25;5209054;28;20072;-48
2023/12/13 09:35:43;;;;;;;2.38;1.42;;;9.30;99.90;;;9.36;100.00;99187.75;5213582;28;20044;-49
2023/12/13 09:38:16;;;;;;;5.63;1.67;;;9.30;99.90;;;9.49;100.00;99190.53;5217173;28;20143;-48
2023/12/13 09:40:49;;;;;;;3.35;1.30;;;9.50;99.90;;;9.62;100.00;99195.91;5200362;28;20069;-49
2023/12/13 09:43:22;;;;;;;4.32;1.65;;;9.60;99.90;;;9.75;100.00;99184.78;5205186;28;20091;-51
2023/12/13 09:45:58;;;;;;;3.47;1.40;;;9.70;99.90;;;9.87;100.00;99197.09;5206956;28;20534;-50
2023/12/13 09:48:31;;;;;;;4.40;1.42;;;9.80;99.90;;;9.95;100.00;99196.31;5207925;28;20045;-49
2023/12/13 09:51:07;;;;;;;2.67;1.25;;;9.90;99.90;;;10.01;100.00;99193.78;5204287;28;20120;-50
2023/12/13 09:53:40;;;;;;;3.40;1.92;;;9.90;99.90;;;10.00;100.00;99194.66;5196804;28;20136;-48
2023/12/13 09:56:13;;;;;;;1.83;1.30;;;10.00;99.90;;;10.03;100.00;99205.09;5206220;28;20053;-49
2023/12/13 09:58:46;;;;;;;2.35;1.38;;;10.00;99.90;;;10.08;100.00;99202.53;5203713;28;20515;-48
2023/12/13 10:01:21;;;;;;;2.83;1.38;;;10.10;99.90;;;10.12;100.00;99209.53;5194263;28;20059;-49
2023/12/13 10:03:53;;;;;;;4.43;1.30;;;10.10;99.90;;;10.16;100.00;99207.84;5212142;28;20534;-49
2023/12/13 10:06:26;;;;;;;2.35;1.63;;;10.10;99.90;;;10.20;100.00;99209.63;5203959;28;20143;-50
2023/12/13 10:08:58;;;;;;;3.90;1.65;;;10.20;99.90;;;10.26;100.00;99207.13;5204886;28;20157;-49
2023/12/13 10:11:31;;;;;;;3.63;1.75;;;10.20;99.90;;;10.35;100.00;99207.22;5214217;28;20143;-50
2023/12/13 10:14:04;;;;;;;8.13;2.05;;;10.30;99.90;;;10.51;100.00;99209.13;5202541;28;20049;-49
2023/12/13 10:16:40;;;;;;;4.40;1.58;;;10.40;99.90;;;10.70;100.00;99204.09;5205337;28;20143;-49
2023/12/13 10:19:13;;;;;;;5.13;1.73;;;10.60;99.90;;;10.91;100.00;99209.47;5218088;28;20049;-50
2023/12/13 10:21:49;;;;;;;2.65;1.48;;;10.70;99.90;;;11.13;100.00;99211.38;5200616;28;20049;-49
2023/12/13 10:24:23;;;;;;;4.05;1.67;;;10.90;99.90;;;11.31;100.00;99209.78;5201311;28;20056;-49
2023/12/13 10:26:57;;;;;;;2.75;1.30;;;11.10;99.90;;;11.53;100.00;99208.16;5209747;28;20054;-49
2023/12/13 10:29:30;;;;;;;2.85;1.23;;;11.30;99.90;;;11.56;100.00;99210.81;5205633;28;20041;-50
2023/12/13 10:32:05;;;;;;;1.92;1.10;;;11.40;99.90;;;11.54;100.00;99210.81;5197429;28;20053;-49
2023/12/13 10:34:38;;;;;;;5.00;1.40;;;11.40;99.90;;;11.53;100.00;99215.97;5204771;28;20519;-50
2023/12/13 10:37:13;;;;;;;1.60;0.90;;;11.40;99.90;;;11.52;100.00;99217.72;5198645;28;20419;-49
2023/12/13 10:39:46;;;;;;;1.90;0.77;;;11.40;99.90;;;11.50;100.00;99214.25;5196877;28;20475;-52
2023/12/13 10:42:20;;;;;;;3.70;1.23;;;11.40;99.90;;;11.48;100.00;99215.97;5206460;28;20049;-47
2023/12/13 10:44:54;;;;;;;2.17;0.82;;;11.40;99.90;;;11.45;100.00;99213.34;5208335;28;20084;-49
2023/12/13 10:47:28;;;;;;;2.20;1.10;;;11.40;99.90;;;11.41;100.00;99207.25;5202261;28;20041;-50
2023/12/13 10:50:02;;;;;;;1.13;0.85;;;11.40;99.90;;;11.41;100.00;99207.25;5203129;28;20476;-49
2023/12/13 10:52:36;;;;;;;2.85;1.10;;;11.30;99.90;;;11.45;100.00;99213.34;5205129;28;20108;-48
2023/12/13 10:55:09;;;;;;;3.05;1.13;;;11.30;99.90;;;11.45;100.00;99213.34;5210866;28;20048;-49
2023/12/13 10:57:42;;;;;;;2.38;1.10;;;11.40;99.90;;;11.56;100.00;99210.81;5203071;28;20099;-49
2023/12/13 11:00:17;;;;;;;3.22;1.08;;;11.40;99.90;;;11.59;100.00;99209.06;5203194;28;20041;-49
2023/12/13 11:03:00;;;;;;;2.75;1.30;;;11.50;99.90;;;11.59;100.00;99216.91;5203055;28;20041;-47
2023/12/13 11:05:32;;;;;;;3.15;1.70;;;11.50;99.90;;;11.57;100.00;99209.94;5200014;28;20523;-49
2023/12/13 11:08:16;;;;;;;3.53;1.30;;;11.50;99.90;;;11.52;100.00;99203.81;5199136;28;20400;-51
2023/12/13 11:11:03;;;;;;;4.15;1.50;;;11.40;99.90;;;11.48;100.00;99207.28;5188136;28;20060;-49
2023/12/13 11:13:40;;;;;;;3.33;1.13;;;11.40;99.90;;;11.81;100.00;99206.63;5219697;28;20060;-48
2023/12/13 11:16:18;;;;;;;4.30;1.20;;;11.70;99.90;;;12.09;100.00;99203.25;5204189;28;20858;-49
2023/12/13 11:18:54;;;;;;;3.92;1.25;;;11.90;99.90;;;12.04;100.00;99198.88;5194143;28;20073;-50
2023/12/13 11:21:30;;;;;;;1.95;1.20;;;12.00;99.90;;;11.89;100.00;99207.53;5201327;28;20522;-49
2023/12/13 11:24:11;;;;;;;2.85;1.10;;;11.90;99.90;;;11.75;100.00;99206.56;5204369;28;20048;-49
2023/12/13 11:26:50;;;;;;;4.45;1.95;;;11.80;99.90;;;11.62;100.00;99206.50;5196407;28;20131;-48
2023/12/13 11:29:25;;;;;;;4.20;1.20;;;11.70;99.90;;;11.52;100.00;99206.41;5203374;28;20059;-50
2023/12/13 11:32:00;;;;;;;2.38;1.00;;;11.50;99.90;;;11.46;100.00;99202.03;5204130;28;20099;-49
2023/12/13 11:34:35;;;;;;;;;;;11.50;99.90;;;11.41;100.00;99203.75;5212079;28;20057;-50
2023/12/13 11:37:10;;;;;;;2.60;1.23;;;11.40;99.90;;;11.38;100.00;99202.00;5211488;28;19980;-49
2023/12/13 11:39:46;;;;;;;4.47;1.25;;;11.40;99.90;;;11.36;100.00;99208.06;5219672;28;20447;-50
2023/12/13 11:42:19;;;;;;;4.10;1.30;;;11.40;99.90;;;11.26;100.00;99211.47;5206092;28;20595;-50